Time;durP1;ratioP1;P1;durP2;ratioP2;P2;SDS_P1;SDS_P2;PMS_P1;PMS_P2;Temp;Humidity;BMP_temperature;BMP_pressure;BME280_temperature;BME280_humidity;BME280_pressure;Samples;Min_cycle;Max_cycle;Signal;HPM_P1;HPM_P2
2023/02/16 00:00:19;;;;;;;58.10;25.20;;;0.80;99.90;;;;;;5052961;28;20048;-66
2023/02/16 00:02:47;;;;;;;58.83;26.08;;;0.80;99.90;;;;;;5050056;28;20117;-67
2023/02/16 00:05:24;;;;;;;52.33;24.05;;;0.70;99.90;;;;;;5056597;28;20223;-66
2023/02/16 00:07:53;;;;;;;55.47;25.92;;;0.70;99.90;;;;;;5062493;28;20101;-68
2023/02/16 00:10:21;;;;;;;55.58;26.85;;;0.70;99.90;;;;;;5070678;28;20546;-67
2023/02/16 00:15:34;;;;;;;54.20;26.35;;;0.60;99.90;;;;;;5047098;28;20087;-67
2023/02/16 00:18:16;;;;;;;59.72;25.45;;;0.60;99.90;;;;;;5070106;28;20558;-67
2023/02/16 00:20:44;;;;;;;60.67;26.48;;;0.50;99.90;;;;;;5069886;28;20048;-67
2023/02/16 00:23:11;;;;;;;58.72;25.70;;;0.50;99.90;;;;;;5070686;28;20044;-67
2023/02/16 00:25:39;;;;;;;60.92;26.45;;;0.40;99.90;;;;;;5086097;28;20059;-67
2023/02/16 00:28:17;;;;;;;63.42;27.10;;;0.30;99.90;;;;;;5084286;28;20041;-67
2023/02/16 00:30:44;;;;;;;56.95;26.55;;;0.20;99.90;;;;;;5069555;28;20043;-66
2023/02/16 00:33:19;;;;;;;61.60;26.48;;;0.20;99.90;;;;;;5070643;28;20072;-68
2023/02/16 00:35:47;;;;;;;52.63;24.38;;;0.10;99.90;;;;;;5058735;28;20071;-66
2023/02/16 00:38:15;;;;;;;58.38;26.30;;;0.10;99.90;;;;;;5056709;28;20455;-67
2023/02/16 00:40:43;;;;;;;58.78;25.85;;;0.00;99.90;;;;;;5060853;28;20041;-67
2023/02/16 00:43:26;;;;;;;56.42;25.15;;;0.00;99.90;;;;;;5062726;28;20055;-67
2023/02/16 00:45:55;;;;;;;60.45;25.85;;;-0.10;99.90;;;;;;5068035;28;20482;-67
2023/02/16 00:48:23;;;;;;;61.15;26.60;;;-0.10;99.90;;;;;;5069050;28;20407;-66
2023/02/16 00:50:52;;;;;;;61.10;25.27;;;-0.20;99.90;;;;;;5086855;28;20075;-67
2023/02/16 00:53:19;;;;;;;59.92;26.30;;;-0.30;99.90;;;;;;5069549;28;20040;-67
2023/02/16 00:55:47;;;;;;;58.30;26.38;;;-0.30;99.90;;;;;;5074061;28;20067;-67
2023/02/16 00:58:25;;;;;;;60.55;26.90;;;-0.30;99.90;;;;;;5059794;28;20045;-67
2023/02/16 01:00:57;;;;;;;62.60;26.65;;;-0.30;99.90;;;;;;5050429;28;20045;-67
2023/02/16 01:03:26;;;;;;;58.15;24.40;;;-0.30;99.90;;;;;;5074545;28;20052;-67
2023/02/16 01:11:40;;;;;;;63.20;25.50;;;-0.30;99.90;;;;;;5011569;28;20042;-67
2023/02/16 01:14:11;;;;;;;56.63;25.63;;;-0.30;99.90;;;;;;5009813;28;20484;-67
2023/02/16 01:16:41;;;;;;;56.03;25.92;;;-0.30;99.90;;;;;;4993812;28;20552;-66
2023/02/16 01:19:11;;;;;;;67.20;27.52;;;-0.30;99.90;;;;;;5011420;28;20088;-66
2023/02/16 01:21:38;;;;;;;58.40;27.13;;;-0.30;99.90;;;;;;5010294;28;20137;-66
2023/02/16 01:24:06;;;;;;;59.45;26.58;;;-0.30;99.90;;;;;;4994000;28;20145;-66
2023/02/16 01:26:49;;;;;;;59.35;27.38;;;-0.30;99.90;;;;;;5009522;28;20045;-66
2023/02/16 01:29:18;;;;;;;57.00;24.60;;;-0.30;99.90;;;;;;4995869;28;20045;-66
2023/02/16 01:31:48;;;;;;;56.00;25.02;;;-0.40;99.90;;;;;;4990232;28;20065;-66
2023/02/16 01:34:16;;;;;;;59.17;26.83;;;-0.40;99.90;;;;;;5011390;28;20523;-66
2023/02/16 01:36:48;;;;;;;52.10;24.80;;;-0.40;99.90;;;;;;5009908;28;20076;-66
2023/02/16 01:39:16;;;;;;;;;;;-0.40;99.90;;;;;;5012550;28;20105;-66
2023/02/16 01:42:28;;;;;;;57.60;25.05;;;-0.30;99.90;;;;;;5010631;28;19948;-67
2023/02/16 01:45:03;;;;;;;56.08;25.65;;;-0.40;99.90;;;;;;5027124;28;20049;-66
2023/02/16 01:47:40;;;;;;;60.25;25.70;;;-0.40;99.90;;;;;;5052584;28;20049;-66
2023/02/16 01:50:21;;;;;;;57.65;24.63;;;-0.40;99.90;;;;;;5049049;28;20403;-66
2023/02/16 01:52:56;;;;;;;59.53;26.53;;;-0.50;99.90;;;;;;5033090;28;20049;-66
2023/02/16 01:55:28;;;;;;;57.22;25.10;;;-0.40;99.90;;;;;;5031054;28;20191;-66
2023/02/16 01:57:58;;;;;;;;;;;-0.40;99.90;;;;;;5049253;28;20056;-67
2023/02/16 02:00:28;;;;;;;52.13;23.23;;;-0.50;99.90;;;;;;5049778;28;20290;-67
2023/02/16 02:05:48;;;;;;;62.47;25.95;;;-0.50;99.90;;;;;;5054088;28;20071;-66
2023/02/16 02:08:26;;;;;;;53.05;25.48;;;-0.50;99.90;;;;;;5053389;28;20116;-67
2023/02/16 02:10:56;;;;;;;64.20;26.95;;;-0.50;99.90;;;;;;5051794;28;20129;-67
2023/02/16 02:13:33;;;;;;;55.40;24.48;;;-0.50;99.90;;;;;;5051174;28;20120;-67
2023/02/16 02:16:02;;;;;;;53.92;24.50;;;-0.60;99.90;;;;;;5050413;28;20040;-67
2023/02/16 02:18:31;;;;;;;57.17;26.55;;;-0.60;99.90;;;;;;5068529;28;20060;-67
2023/02/16 02:24:28;;;;;;;61.53;26.33;;;-0.60;99.90;;;;;;5035926;28;20049;-67
2023/02/16 02:27:15;;;;;;;62.75;26.90;;;-0.60;99.90;;;;;;5029751;28;20494;-67
2023/02/16 02:29:46;;;;;;;57.17;24.08;;;-0.60;99.90;;;;;;5030247;28;20565;-67
2023/02/16 02:32:20;;;;;;;58.58;25.02;;;-0.60;99.90;;;;;;5046663;28;20096;-67
2023/02/16 02:34:57;;;;;;;59.50;25.38;;;-0.60;99.90;;;;;;5031339;28;20056;-67
2023/02/16 02:37:44;;;;;;;58.83;25.10;;;-0.70;99.90;;;;;;5029428;28;20034;-67
2023/02/16 02:40:30;;;;;;;57.58;26.08;;;-0.70;99.90;;;;;;5031128;28;20532;-67
2023/02/16 02:43:04;;;;;;;58.20;24.52;;;-0.70;99.90;;;;;;5036405;28;20095;-67
2023/02/16 02:45:39;;;;;;;56.17;24.48;;;-0.70;99.90;;;;;;5030924;28;20076;-67
2023/02/16 02:48:07;;;;;;;53.65;25.00;;;-0.70;99.90;;;;;;5029863;28;20467;-67
2023/02/16 02:53:46;;;;;;;55.28;24.55;;;-0.70;99.90;;;;;;5031424;28;20045;-67
2023/02/16 03:01:58;;;;;;;46.85;23.13;;;-0.70;99.90;;;;;;5050154;28;20037;-67
2023/02/16 03:04:28;;;;;;;59.00;26.10;;;-0.70;99.90;;;;;;5049388;28;20083;-67
2023/02/16 03:06:58;;;;;;;53.88;24.95;;;-0.70;99.90;;;;;;5050592;28;20493;-67
2023/02/16 03:09:26;;;;;;;58.45;24.40;;;-0.70;99.90;;;;;;5034530;28;20041;-67
2023/02/16 03:14:45;;;;;;;58.88;25.48;;;-0.70;99.90;;;;;;5031446;28;20052;-67
2023/02/16 03:31:20;;;;;;;53.85;25.08;;;-0.70;99.90;;;;;;5029888;28;20073;-66
2023/02/16 03:33:53;;;;;;;55.97;25.92;;;-0.80;99.90;;;;;;5030416;28;20076;-66
2023/02/16 03:36:23;;;;;;;64.93;26.25;;;-0.80;99.90;;;;;;5043416;28;20458;-67
2023/02/16 03:38:52;;;;;;;61.92;27.52;;;-0.90;99.90;;;;;;5050309;28;20515;-67
2023/02/16 03:41:20;;;;;;;54.78;24.92;;;-0.90;99.90;;;;;;5065933;28;20052;-66
2023/02/16 03:43:47;;;;;;;54.80;24.60;;;-0.90;99.90;;;;;;5033128;28;20072;-67
2023/02/16 03:46:14;;;;;;;53.33;24.92;;;-0.90;99.90;;;;;;5030596;28;20037;-67
2023/02/16 03:48:42;;;;;;;53.03;23.45;;;-0.90;99.90;;;;;;5030971;28;20213;-67
2023/02/16 03:51:09;;;;;;;59.67;26.13;;;-0.80;99.90;;;;;;5045733;28;20041;-66
2023/02/16 03:53:36;;;;;;;56.55;25.45;;;-0.90;99.90;;;;;;5029254;28;20049;-66
2023/02/16 03:56:04;;;;;;;59.90;25.67;;;-0.90;99.90;;;;;;5048476;28;20037;-66
2023/02/16 03:58:32;;;;;;;55.17;24.65;;;-0.90;99.90;;;;;;5040739;28;20041;-66
2023/02/16 04:00:59;;;;;;;56.65;24.63;;;-0.90;99.90;;;;;;5050474;28;20044;-67
2023/02/16 04:03:26;;;;;;;51.92;24.55;;;-0.90;99.90;;;;;;5049144;28;20427;-67
2023/02/16 04:05:55;;;;;;;53.88;25.05;;;-0.90;99.90;;;;;;5050282;28;20506;-66
2023/02/16 04:08:22;;;;;;;52.00;23.73;;;-0.90;99.90;;;;;;5029502;28;20122;-66
2023/02/16 04:10:49;;;;;;;56.85;24.90;;;-1.00;99.90;;;;;;5029762;28;20103;-66
2023/02/16 04:13:17;;;;;;;57.90;24.42;;;-1.00;99.90;;;;;;5027988;28;20064;-67
2023/02/16 04:15:44;;;;;;;56.63;24.45;;;-1.10;99.90;;;;;;5029094;28;20048;-66
2023/02/16 04:18:11;;;;;;;62.08;25.42;;;-1.20;99.90;;;;;;5029531;28;20049;-66
2023/02/16 04:20:39;;;;;;;52.88;24.17;;;-1.10;99.90;;;;;;5029494;28;20132;-66
2023/02/16 04:23:06;;;;;;;57.30;25.30;;;-1.10;99.90;;;;;;5029261;28;20496;-66
2023/02/16 04:25:34;;;;;;;54.53;24.63;;;-1.10;99.90;;;;;;5052856;28;20041;-66
2023/02/16 04:28:01;;;;;;;50.78;24.60;;;-1.10;99.90;;;;;;5039612;28;20107;-66
2023/02/16 04:30:30;;;;;;;56.80;23.80;;;-1.10;99.90;;;;;;5029190;28;20041;-67
2023/02/16 04:32:58;;;;;;;58.88;25.05;;;-1.10;99.90;;;;;;5011458;28;20125;-66
2023/02/16 04:35:26;;;;;;;62.15;24.98;;;-1.00;99.90;;;;;;5029660;28;20143;-66
2023/02/16 04:37:53;;;;;;;57.35;25.60;;;-1.00;99.90;;;;;;5029840;28;20034;-66
2023/02/16 04:40:20;;;;;;;63.75;26.08;;;-1.00;99.90;;;;;;5029883;28;20056;-67
2023/02/16 04:42:48;;;;;;;60.63;26.17;;;-1.00;99.90;;;;;;5044249;28;20431;-66
2023/02/16 04:45:15;;;;;;;58.22;25.98;;;-0.90;99.90;;;;;;5043865;28;20456;-66
2023/02/16 04:47:42;;;;;;;56.00;25.70;;;-0.90;99.90;;;;;;5030350;28;20056;-67
2023/02/16 04:50:10;;;;;;;58.97;26.27;;;-0.90;99.90;;;;;;5029545;28;20049;-66
2023/02/16 04:52:37;;;;;;;57.83;24.00;;;-0.90;99.90;;;;;;5047952;28;20392;-66
2023/02/16 04:55:06;;;;;;;59.85;25.50;;;-0.90;99.90;;;;;;5040516;28;20128;-67
2023/02/16 04:57:33;;;;;;;62.33;25.60;;;-0.90;99.90;;;;;;5033545;28;20045;-67
2023/02/16 05:00:00;;;;;;;66.88;25.77;;;-0.90;99.90;;;;;;5045545;28;20053;-67
2023/02/16 05:02:31;;;;;;;59.38;25.98;;;-0.80;99.90;;;;;;5043771;28;20084;-66
2023/02/16 05:04:58;;;;;;;56.88;24.88;;;-0.80;99.90;;;;;;5029491;28;20050;-67
2023/02/16 05:07:25;;;;;;;63.25;27.48;;;-0.80;99.90;;;;;;5047511;28;20041;-66
2023/02/16 05:09:53;;;;;;;66.28;28.15;;;-0.80;99.90;;;;;;5039108;28;20129;-66
2023/02/16 05:15:06;;;;;;;53.33;24.15;;;-0.70;99.90;;;;;;5029238;28;20150;-67
2023/02/16 05:17:33;;;;;;;54.78;25.13;;;-0.70;99.90;;;;;;5035860;28;20436;-67
2023/02/16 05:20:00;;;;;;;54.45;24.65;;;-0.70;99.90;;;;;;5049915;28;20049;-67
2023/02/16 05:22:28;;;;;;;55.20;24.27;;;-0.70;99.90;;;;;;5043552;28;20136;-66
2023/02/16 05:24:55;;;;;;;55.70;24.35;;;-0.80;99.90;;;;;;5028919;28;20053;-67
2023/02/16 05:27:25;;;;;;;54.20;25.27;;;-0.80;99.90;;;;;;5029428;28;20053;-67
2023/02/16 05:29:53;;;;;;;49.70;23.30;;;-0.80;99.90;;;;;;5030227;28;20493;-67
2023/02/16 05:32:20;;;;;;;54.70;23.67;;;-0.80;99.90;;;;;;5039408;28;20129;-67
2023/02/16 05:34:48;;;;;;;55.60;24.98;;;-0.80;99.90;;;;;;5028733;28;20059;-67
2023/02/16 05:37:17;;;;;;;54.53;23.88;;;-0.80;99.90;;;;;;5029336;28;20370;-67
2023/02/16 05:39:44;;;;;;;53.63;23.83;;;-0.80;99.90;;;;;;5033501;28;20512;-67
2023/02/16 05:42:12;;;;;;;55.05;24.38;;;-0.80;99.90;;;;;;5044666;28;20044;-67
2023/02/16 05:44:39;;;;;;;52.10;24.23;;;-0.80;99.90;;;;;;5068339;28;20116;-67
2023/02/16 05:47:06;;;;;;;53.67;24.05;;;-0.70;99.90;;;;;;5055819;28;20127;-67
2023/02/16 05:49:34;;;;;;;57.25;24.90;;;-0.70;99.90;;;;;;5063574;28;20410;-67
2023/02/16 05:52:01;;;;;;;57.60;24.75;;;-0.70;99.90;;;;;;5072410;28;20117;-67
2023/02/16 05:54:28;;;;;;;56.08;25.42;;;-0.70;99.90;;;;;;5062774;28;20040;-67
2023/02/16 05:56:56;;;;;;;51.45;25.38;;;-0.70;99.90;;;;;;5066296;28;20045;-67
2023/02/16 05:59:23;;;;;;;58.90;24.77;;;-0.70;99.90;;;;;;5053020;28;20503;-67
2023/02/16 06:01:50;;;;;;;53.15;23.17;;;-0.70;99.90;;;;;;5071676;28;20391;-67
2023/02/16 06:04:20;;;;;;;54.55;23.30;;;-0.70;99.90;;;;;;5073057;28;20090;-67
2023/02/16 06:06:47;;;;;;;58.28;25.02;;;-0.70;99.90;;;;;;5060691;28;20041;-67
2023/02/16 06:09:15;;;;;;;52.15;23.88;;;-0.70;99.90;;;;;;5088717;28;20565;-67
2023/02/16 06:11:42;;;;;;;52.47;23.77;;;-0.70;99.90;;;;;;5054270;28;20049;-67
2023/02/16 06:14:13;;;;;;;58.42;24.70;;;-0.70;99.90;;;;;;5063957;28;20037;-67
2023/02/16 06:16:43;;;;;;;;;;;-0.70;99.90;;;;;;5070910;28;20040;-67
2023/02/16 06:19:11;;;;;;;55.15;23.00;;;-0.70;99.90;;;;;;5065474;28;19936;-68
2023/02/16 06:21:39;;;;;;;50.10;22.88;;;-0.70;99.90;;;;;;5073446;28;20391;-67
2023/02/16 06:24:08;;;;;;;61.13;24.15;;;-0.70;99.90;;;;;;5072545;28;20127;-66
2023/02/16 06:26:35;;;;;;;57.17;24.48;;;-0.80;99.90;;;;;;5072854;28;20144;-67
2023/02/16 06:29:04;;;;;;;59.50;25.73;;;-0.80;99.90;;;;;;5065223;28;20037;-67
2023/02/16 06:31:31;;;;;;;56.05;24.58;;;-0.80;99.90;;;;;;5055385;28;20251;-67
2023/02/16 06:34:03;;;;;;;57.10;25.25;;;-0.90;99.90;;;;;;5070332;28;20051;-66
2023/02/16 06:36:30;;;;;;;60.08;24.67;;;-0.90;99.90;;;;;;5054461;28;20053;-66
2023/02/16 06:38:58;;;;;;;59.00;25.58;;;-0.90;99.90;;;;;;5056638;28;20534;-67
2023/02/16 06:41:34;;;;;;;61.97;23.88;;;-0.80;99.90;;;;;;5057616;28;20071;-67
2023/02/16 06:44:04;;;;;;;55.17;24.65;;;-0.80;99.90;;;;;;5051689;28;20061;-67
2023/02/16 06:46:31;;;;;;;55.72;25.92;;;-0.80;99.90;;;;;;5062872;28;20793;-68
2023/02/16 06:49:00;;;;;;;56.25;24.30;;;-0.70;99.90;;;;;;5044787;28;20036;-68
2023/02/16 06:51:47;;;;;;;54.40;25.52;;;-0.70;99.90;;;;;;5056949;28;20063;-67
2023/02/16 06:54:15;;;;;;;63.97;26.52;;;-0.70;99.90;;;;;;5051954;28;20450;-67
2023/02/16 06:56:43;;;;;;;59.67;24.98;;;-0.70;99.90;;;;;;5062450;28;20101;-68
2023/02/16 06:59:11;;;;;;;56.45;23.92;;;-0.60;99.90;;;;;;5076129;28;20044;-67
2023/02/16 07:01:38;;;;;;;47.63;23.75;;;-0.60;99.90;;;;;;5058184;28;20048;-67
2023/02/16 07:04:06;;;;;;;53.65;24.92;;;-0.50;99.90;;;;;;5056748;28;20412;-67
2023/02/16 07:06:42;;;;;;;59.10;24.77;;;-0.50;99.90;;;;;;5068078;28;20337;-67
2023/02/16 07:09:10;;;;;;;51.28;23.60;;;-0.40;99.90;;;;;;5047907;28;20045;-67
2023/02/16 07:11:39;;;;;;;55.22;25.70;;;-0.40;99.90;;;;;;5039714;28;20102;-67
2023/02/16 07:14:06;;;;;;;53.67;23.25;;;-0.30;99.90;;;;;;5040439;28;20040;-67
2023/02/16 07:16:33;;;;;;;55.40;23.95;;;-0.20;99.90;;;;;;5037721;28;20072;-67
2023/02/16 07:19:19;;;;;;;47.40;22.65;;;-0.20;99.90;;;;;;5051112;28;20098;-67
2023/02/16 07:21:47;;;;;;;49.63;23.58;;;-0.10;99.90;;;;;;5050884;28;20047;-66
2023/02/16 07:24:14;;;;;;;45.53;22.50;;;0.00;99.90;;;;;;5049174;28;20041;-66
2023/02/16 07:26:42;;;;;;;46.55;22.52;;;0.10;99.90;;;;;;5058250;28;20037;-66
2023/02/16 07:29:09;;;;;;;45.95;23.25;;;0.20;99.90;;;;;;5072350;28;20479;-67
2023/02/16 07:31:37;;;;;;;45.72;23.00;;;0.30;99.90;;;;;;5071119;28;20044;-67
2023/02/16 07:34:05;;;;;;;41.50;21.13;;;0.40;99.90;;;;;;5074421;28;20098;-67
2023/02/16 07:36:32;;;;;;;40.33;20.80;;;0.50;99.90;;;;;;5052323;28;20375;-66
2023/02/16 07:39:00;;;;;;;44.75;20.40;;;0.50;99.90;;;;;;5060602;28;20480;-67
2023/02/16 07:41:28;;;;;;;39.15;20.58;;;0.60;99.90;;;;;;5055312;28;20121;-67
2023/02/16 07:43:55;;;;;;;41.50;20.58;;;0.70;99.90;;;;;;5055293;28;20071;-66
2023/02/16 07:46:23;;;;;;;43.40;21.92;;;0.70;99.90;;;;;;5038285;28;20412;-66
2023/02/16 07:48:50;;;;;;;42.25;21.23;;;0.80;99.90;;;;;;5029220;28;20088;-66
2023/02/16 07:51:24;;;;;;;42.92;20.27;;;0.80;99.90;;;;;;5028427;28;20049;-66
2023/02/16 07:53:52;;;;;;;41.88;21.52;;;0.90;99.90;;;;;;5031594;28;20041;-66
2023/02/16 07:56:29;;;;;;;40.85;20.40;;;1.00;99.90;;;;;;5045074;28;20037;-66
2023/02/16 07:58:57;;;;;;;40.42;20.77;;;1.00;99.90;;;;;;5046998;28;20041;-67
2023/02/16 08:01:26;;;;;;;38.28;19.23;;;1.00;99.90;;;;;;5036816;28;20042;-66
2023/02/16 08:03:53;;;;;;;39.60;20.67;;;1.00;99.90;;;;;;5060845;28;20131;-66
2023/02/16 08:06:21;;;;;;;42.03;21.48;;;1.10;99.90;;;;;;5047710;28;20045;-66
2023/02/16 08:08:48;;;;;;;42.15;20.45;;;1.20;99.90;;;;;;5050070;28;20049;-66
2023/02/16 08:11:18;;;;;;;39.83;20.98;;;1.20;99.90;;;;;;5039737;28;20548;-66
2023/02/16 08:13:46;;;;;;;39.85;20.83;;;1.30;99.90;;;;;;5028488;28;20380;-66
2023/02/16 08:16:19;;;;;;;40.58;21.00;;;1.30;99.90;;;;;;5027017;28;20101;-66
2023/02/16 08:18:47;;;;;;;37.03;19.70;;;1.30;99.90;;;;;;5028805;28;20460;-66
2023/02/16 08:21:20;;;;;;;41.38;20.50;;;1.30;99.90;;;;;;5028661;28;20416;-66
2023/02/16 08:23:54;;;;;;;35.25;20.15;;;1.40;99.90;;;;;;5027378;28;20057;-66
2023/02/16 08:26:23;;;;;;;37.47;20.58;;;1.50;99.90;;;;;;5025070;28;20045;-66
2023/02/16 08:28:51;;;;;;;43.58;21.10;;;1.60;99.90;;;;;;5029065;28;20507;-66
2023/02/16 08:31:24;;;;;;;39.78;20.50;;;1.80;99.90;;;;;;5040106;28;20034;-66
2023/02/16 08:33:53;;;;;;;36.35;19.75;;;1.80;99.90;;;;;;5037101;28;20097;-67
2023/02/16 08:36:31;;;;;;;41.78;20.05;;;2.00;99.90;;;;;;5048944;28;20385;-65
2023/02/16 08:38:59;;;;;;;35.35;19.20;;;2.10;99.90;;;;;;5048800;28;20077;-67
2023/02/16 08:41:35;;;;;;;37.10;19.90;;;2.20;99.90;;;;;;5064266;28;20037;-66
2023/02/16 08:44:04;;;;;;;38.17;20.20;;;2.30;99.90;;;;;;5033262;28;20068;-66
2023/02/16 08:46:34;;;;;;;36.40;20.77;;;2.40;99.90;;;;;;5038026;28;20225;-66
2023/02/16 08:49:01;;;;;;;35.08;19.52;;;2.40;99.90;;;;;;5033776;28;20048;-66
2023/02/16 08:51:33;;;;;;;35.22;19.35;;;2.50;99.90;;;;;;5047486;28;20086;-66
2023/02/16 08:54:01;;;;;;;36.67;20.08;;;2.60;99.90;;;;;;5070100;28;20048;-66
2023/02/16 08:56:32;;;;;;;35.70;20.00;;;2.80;99.90;;;;;;5050586;28;20541;-66
2023/02/16 08:58:59;;;;;;;34.50;20.05;;;2.90;99.90;;;;;;5042289;28;20491;-66
2023/02/16 09:01:27;;;;;;;32.17;18.85;;;3.00;99.90;;;;;;5044116;28;20112;-67
2023/02/16 09:03:54;;;;;;;38.35;20.35;;;3.10;99.90;;;;;;5047222;28;20419;-65
2023/02/16 09:06:22;;;;;;;35.20;19.30;;;3.20;99.90;;;;;;5035190;28;20038;-65
2023/02/16 09:08:54;;;;;;;33.50;18.83;;;3.30;99.90;;;;;;5043017;28;20041;-66
2023/02/16 09:11:23;;;;;;;35.05;19.02;;;3.40;99.90;;;;;;5047503;28;20040;-65
2023/02/16 09:13:50;;;;;;;30.38;18.02;;;3.50;99.90;;;;;;5031408;28;20036;-64
2023/02/16 09:16:21;;;;;;;33.85;19.50;;;3.60;99.90;;;;;;5035065;28;20064;-65
2023/02/16 09:18:49;;;;;;;32.65;19.23;;;3.70;99.90;;;;;;5034508;28;20475;-65
2023/02/16 09:21:20;;;;;;;34.85;19.15;;;3.80;99.90;;;;;;5031155;28;20152;-66
2023/02/16 09:23:49;;;;;;;32.92;19.70;;;3.90;99.90;;;;;;5030542;28;20099;-66
2023/02/16 09:26:21;;;;;;;35.22;19.50;;;4.00;99.90;;;;;;5030455;28;20049;-66
2023/02/16 09:28:49;;;;;;;29.90;17.90;;;4.10;99.90;;;;;;5030528;28;20049;-65
2023/02/16 09:31:26;;;;;;;32.85;18.75;;;4.30;99.90;;;;;;5031630;28;20037;-66
2023/02/16 09:33:56;;;;;;;32.63;18.90;;;4.40;99.90;;;;;;5032109;28;20094;-66
2023/02/16 09:36:23;;;;;;;35.25;20.00;;;4.50;99.90;;;;;;5035660;28;20036;-66
2023/02/16 09:38:52;;;;;;;35.90;20.50;;;4.60;99.90;;;;;;5049671;28;20685;-66
2023/02/16 09:41:59;;;;;;;35.75;20.35;;;4.70;99.90;;;;;;5047251;28;20161;-66
2023/02/16 09:44:32;;;;;;;36.22;19.42;;;4.70;99.90;;;;;;5041520;28;20045;-66
2023/02/16 09:47:03;;;;;;;30.40;19.13;;;4.80;99.90;;;;;;5042096;28;20045;-66
2023/02/16 09:49:41;;;;;;;35.57;18.70;;;4.80;99.90;;;;;;5032008;28;20123;-65
2023/02/16 09:52:14;;;;;;;35.03;19.88;;;4.90;99.90;;;;;;5039062;28;20302;-66
2023/02/16 09:54:46;;;;;;;35.25;19.80;;;5.10;99.90;;;;;;5051981;28;20071;-65
2023/02/16 09:57:25;;;;;;;33.65;19.60;;;5.20;99.90;;;;;;5049489;28;20060;-65
2023/02/16 10:00:11;;;;;;;33.80;19.52;;;5.40;99.90;;;;;;5050998;28;20573;-65
2023/02/16 10:02:50;;;;;;;34.00;19.50;;;5.60;99.90;;;;;;5029943;28;20045;-65
2023/02/16 10:05:24;;;;;;;33.42;19.13;;;5.70;99.90;;;;;;5041005;28;20507;-66
2023/02/16 10:07:59;;;;;;;31.77;18.85;;;5.90;99.90;;;;;;5041424;28;20033;-67
2023/02/16 10:10:55;;;;;;;33.03;19.73;;;6.10;99.90;;;;;;5050417;28;20494;-66
2023/02/16 10:13:39;;;;;;;37.63;21.27;;;6.40;99.90;;;;;;5037190;28;20071;-68
2023/02/16 10:16:12;;;;;;;33.22;20.13;;;6.60;99.90;;;;;;5049165;28;20052;-65
2023/02/16 10:18:48;;;;;;;33.80;19.40;;;6.70;99.90;;;;;;5030447;28;20110;-65
2023/02/16 10:21:22;;;;;;;32.35;18.85;;;6.90;99.90;;;;;;5039722;28;20526;-65
2023/02/16 10:24:06;;;;;;;35.13;19.33;;;7.00;99.90;;;;;;5042716;28;20093;-66
2023/02/16 10:26:43;;;;;;;29.25;18.55;;;7.10;99.90;;;;;;5034219;28;20509;-66
2023/02/16 10:29:24;;;;;;;27.83;18.70;;;7.30;99.90;;;;;;5049569;28;20065;-66
2023/02/16 10:32:18;;;;;;;32.13;18.92;;;7.50;99.90;;;;;;5050309;28;20518;-66
2023/02/16 10:34:45;;;;;;;29.42;18.23;;;7.70;99.90;;;;;;5024231;28;20043;-65
2023/02/16 10:37:36;;;;;;;27.23;17.35;;;7.90;99.90;;;;;;5050720;28;20044;-66
2023/02/16 10:40:17;;;;;;;28.38;17.70;;;8.10;99.90;;;;;;5046192;28;20554;-66
2023/02/16 10:42:48;;;;;;;34.92;19.85;;;8.20;99.90;;;;;;5050135;28;20118;-65
2023/02/16 10:45:35;;;;;;;30.33;18.73;;;8.40;99.90;;;;;;5046289;28;20060;-66
2023/02/16 10:48:03;;;;;;;29.23;18.65;;;8.60;99.90;;;;;;5048680;28;20049;-66
2023/02/16 10:51:08;;;;;;;29.85;18.27;;;8.90;99.90;;;;;;5043556;28;20041;-66
2023/02/16 10:53:45;;;;;;;30.48;20.15;;;9.00;99.90;;;;;;5037064;28;20518;-67
2023/02/16 10:56:22;;;;;;;34.97;18.70;;;9.10;99.90;;;;;;5050565;28;20369;-67
2023/02/16 10:58:50;;;;;;;28.40;18.88;;;9.30;99.90;;;;;;5047529;28;20412;-65
2023/02/16 11:01:42;;;;;;;29.45;19.30;;;9.70;99.90;;;;;;5044976;28;20115;-66
2023/02/16 11:04:30;;;;;;;30.40;19.92;;;10.10;99.90;;;;;;5044570;28;20040;-66
2023/02/16 11:07:07;;;;;;;26.48;18.30;;;10.20;99.90;;;;;;5040135;28;20510;-66
2023/02/16 11:09:35;;;;;;;30.05;18.38;;;10.60;99.90;;;;;;5036925;28;20082;-66
2023/02/16 11:12:27;;;;;;;25.17;16.92;;;10.40;99.90;;;;;;5039551;28;20100;-67
2023/02/16 11:15:02;;;;;;;26.88;17.65;;;10.60;99.90;;;;;;5041260;28;20036;-66
2023/02/16 11:17:31;;;;;;;24.42;17.08;;;10.90;99.90;;;;;;5048876;28;20048;-65
2023/02/16 11:20:05;;;;;;;25.83;18.17;;;11.10;99.90;;;;;;5048855;28;20439;-66
2023/02/16 11:22:38;;;;;;;25.25;17.13;;;11.50;99.90;;;;;;5049158;28;20356;-65
2023/02/16 11:25:20;;;;;;;24.52;17.70;;;12.00;99.90;;;;;;5040350;28;20045;-66
2023/02/16 11:27:53;;;;;;;30.05;18.05;;;12.50;99.90;;;;;;5048236;28;20045;-64
2023/02/16 11:30:28;;;;;;;29.73;19.90;;;12.60;99.90;;;;;;5047414;28;20048;-65
2023/02/16 11:32:55;;;;;;;26.17;17.80;;;12.70;99.90;;;;;;5046084;28;20053;-66
2023/02/16 11:35:23;;;;;;;23.25;17.52;;;12.80;99.90;;;;;;5040355;28;20055;-65
2023/02/16 11:37:50;;;;;;;32.75;18.95;;;12.90;99.90;;;;;;5039082;28;20037;-64
2023/02/16 11:40:38;;;;;;;23.65;17.92;;;13.40;99.90;;;;;;5061118;28;20047;-64
2023/02/16 11:43:07;;;;;;;22.40;16.80;;;13.70;99.90;;;;;;5045929;28;20431;-64
2023/02/16 11:45:35;;;;;;;27.00;18.35;;;13.70;99.90;;;;;;5042936;28;20037;-64
2023/02/16 11:48:11;;;;;;;26.25;17.98;;;14.00;99.90;;;;;;5055279;28;20384;-65
2023/02/16 11:50:53;;;;;;;23.85;17.20;;;14.10;99.90;;;;;;5032394;28;20464;-65
2023/02/16 11:53:27;;;;;;;25.75;17.75;;;14.20;99.90;;;;;;5043141;28;20045;-65
2023/02/16 11:56:26;;;;;;;29.02;18.05;;;14.70;99.90;;;;;;5031342;28;20155;-65
2023/02/16 11:59:19;;;;;;;24.77;18.00;;;15.20;99.90;;;;;;5042953;28;20466;-64
2023/02/16 12:02:08;;;;;;;24.38;17.38;;;15.40;99.90;;;;;;5055811;28;20091;-65
2023/02/16 12:04:35;;;;;;;26.42;17.42;;;14.70;99.90;;;;;;5047438;28;20053;-64
2023/02/16 12:07:14;;;;;;;27.50;17.98;;;14.60;99.90;;;;;;5046062;28;20504;-64
2023/02/16 12:10:02;;;;;;;24.42;18.38;;;14.60;99.90;;;;;;5046378;28;20496;-65
2023/02/16 12:12:37;;;;;;;26.35;18.63;;;14.20;99.90;;;;;;5030503;28;20041;-64
2023/02/16 12:15:08;;;;;;;22.00;16.73;;;13.80;99.90;;;;;;5034055;28;20033;-64
2023/02/16 12:17:57;;;;;;;30.08;18.73;;;14.00;99.90;;;;;;5038323;28;20143;-64
2023/02/16 12:20:31;;;;;;;25.38;17.13;;;14.70;99.90;;;;;;5033113;28;20139;-64
2023/02/16 12:23:31;;;;;;;24.98;17.08;;;15.20;99.90;;;;;;5039203;28;20045;-65
2023/02/16 12:26:10;;;;;;;25.75;20.15;;;15.70;99.90;;;;;;5045075;28;20048;-64
2023/02/16 12:28:45;;;;;;;24.60;17.55;;;15.50;99.90;;;;;;5041120;28;20041;-65
2023/02/16 12:31:38;;;;;;;24.90;17.50;;;15.80;99.90;;;;;;5031100;28;20053;-65
2023/02/16 12:34:26;;;;;;;26.63;17.77;;;16.50;99.90;;;;;;5029328;28;20190;-65
2023/02/16 12:36:59;;;;;;;24.52;17.13;;;16.90;99.90;;;;;;5029815;28;20053;-65
2023/02/16 12:39:52;;;;;;;22.90;16.25;;;16.80;99.90;;;;;;5029751;28;20492;-65
2023/02/16 12:42:34;;;;;;;20.40;15.80;;;17.20;99.90;;;;;;5057354;28;20055;-66
2023/02/16 12:45:33;;;;;;;20.13;14.18;;;18.50;99.90;;;;;;5043524;28;20121;-66
2023/02/16 12:48:10;;;;;;;20.65;15.10;;;19.00;99.90;;;;;;5041344;28;20041;-67
2023/02/16 12:50:43;;;;;;;20.30;14.65;;;18.60;99.90;;;;;;5042150;28;20432;-66
2023/02/16 12:53:13;;;;;;;19.67;13.88;;;18.60;99.90;;;;;;5041501;28;20033;-67
2023/02/16 12:55:49;;;;;;;19.13;14.88;;;18.50;99.90;;;;;;5038275;28;20041;-66
2023/02/16 12:58:25;;;;;;;17.40;14.57;;;18.10;99.90;;;;;;5032359;28;20053;-66
2023/02/16 13:00:58;;;;;;;18.58;14.30;;;18.30;99.90;;;;;;5051731;28;20037;-66
2023/02/16 13:03:55;;;;;;;19.45;14.57;;;18.20;99.90;;;;;;5049277;28;20428;-66
2023/02/16 13:06:55;;;;;;;21.10;15.40;;;19.30;99.50;;;;;;5046033;28;20053;-66
2023/02/16 13:09:32;;;;;;;18.73;15.05;;;20.20;97.80;;;;;;5026851;28;20132;-66
2023/02/16 13:12:28;;;;;;;19.67;14.70;;;21.40;94.80;;;;;;5048930;28;20045;-67
2023/02/16 13:15:03;;;;;;;16.17;14.30;;;22.00;93.20;;;;;;5054054;28;20048;-65
2023/02/16 13:17:35;;;;;;;17.45;14.13;;;22.70;92.60;;;;;;5041940;28;20640;-66
2023/02/16 13:20:03;;;;;;;19.20;14.93;;;22.60;90.90;;;;;;5032450;28;20049;-66
2023/02/16 13:22:48;;;;;;;15.07;13.48;;;23.40;88.00;;;;;;5046926;28;20041;-66
2023/02/16 13:25:43;;;;;;;14.23;12.15;;;22.90;87.10;;;;;;5031411;28;20090;-67
2023/02/16 13:28:26;;;;;;;14.52;12.75;;;23.40;86.10;;;;;;5030076;28;20132;-64
2023/02/16 13:31:03;;;;;;;15.00;13.05;;;24.30;82.50;;;;;;5036229;28;20427;-67
2023/02/16 13:33:50;;;;;;;17.02;13.85;;;23.90;80.70;;;;;;5041591;28;20037;-66
2023/02/16 13:37:02;;;;;;;17.30;13.75;;;23.60;81.70;;;;;;5031229;28;20472;-66
2023/02/16 13:40:10;;;;;;;16.35;12.63;;;21.90;82.30;;;;;;5024222;28;20532;-66
2023/02/16 13:43:13;;;;;;;15.57;11.15;;;21.90;80.90;;;;;;5052206;28;20484;-66